Terminal Aerodrome Forecast
Issued by NWS Detroit/Pontiac, MI

Home | Current Version | Previous Version | Text Only | Print | Product List | Glossary On
Versions: 1 2 3 4 5 6 7 8 9 10 11 12 13 14
305
FTUS43 KDTX 300537
TAFFNT
TAF
KFNT 300537Z 3006/3106 25005KT P6SM SCT080
     FM301400 24012KT P6SM SCT045
     FM301700 25014G22KT P6SM BKN060
     FM310000 24008KT P6SM BKN080=

USA.gov is the U.S. government's official web portal to all federal, state and local government web resources and services.